sensor_id;sensor_type;location;lat;lon;timestamp;temperature;humidity
53978;DHT22;39886;47.984;-1.586;2022-07-25T00:01:45;27.50;51.50
53978;DHT22;39886;47.984;-1.586;2022-07-25T00:04:11;27.50;51.50
53978;DHT22;39886;47.984;-1.586;2022-07-25T00:06:39;27.50;51.60
53978;DHT22;39886;47.984;-1.586;2022-07-25T00:09:05;27.40;51.50
53978;DHT22;39886;47.984;-1.586;2022-07-25T00:11:31;27.40;51.60
53978;DHT22;39886;47.984;-1.586;2022-07-25T00:13:57;27.40;51.60
53978;DHT22;39886;47.984;-1.586;2022-07-25T00:16:22;27.40;51.60
53978;DHT22;39886;47.984;-1.586;2022-07-25T00:18:48;27.40;51.60
53978;DHT22;39886;47.984;-1.586;2022-07-25T00:21:14;27.40;52.30
53978;DHT22;39886;47.984;-1.586;2022-07-25T00:23:40;27.40;51.70
53978;DHT22;39886;47.984;-1.586;2022-07-25T00:26:06;27.30;51.60
53978;DHT22;39886;47.984;-1.586;2022-07-25T00:28:32;27.30;51.70
53978;DHT22;39886;47.984;-1.586;2022-07-25T00:30:58;27.30;51.70
53978;DHT22;39886;47.984;-1.586;2022-07-25T00:33:23;27.30;51.70
53978;DHT22;39886;47.984;-1.586;2022-07-25T00:35:49;27.30;51.70
53978;DHT22;39886;47.984;-1.586;2022-07-25T00:38:15;27.30;51.80
53978;DHT22;39886;47.984;-1.586;2022-07-25T00:40:40;27.30;51.80
53978;DHT22;39886;47.984;-1.586;2022-07-25T00:43:06;27.30;51.80
53978;DHT22;39886;47.984;-1.586;2022-07-25T00:45:32;27.20;51.80
53978;DHT22;39886;47.984;-1.586;2022-07-25T00:47:58;27.20;51.80
53978;DHT22;39886;47.984;-1.586;2022-07-25T00:50:24;27.20;51.80
53978;DHT22;39886;47.984;-1.586;2022-07-25T00:52:50;27.20;51.90
53978;DHT22;39886;47.984;-1.586;2022-07-25T00:55:16;27.20;51.90
53978;DHT22;39886;47.984;-1.586;2022-07-25T00:57:42;27.20;51.90
53978;DHT22;39886;47.984;-1.586;2022-07-25T01:00:11;27.10;51.80
53978;DHT22;39886;47.984;-1.586;2022-07-25T01:02:37;27.10;51.90
53978;DHT22;39886;47.984;-1.586;2022-07-25T01:05:04;27.10;51.90
53978;DHT22;39886;47.984;-1.586;2022-07-25T01:07:30;27.10;51.90
53978;DHT22;39886;47.984;-1.586;2022-07-25T01:09:56;27.10;51.90
53978;DHT22;39886;47.984;-1.586;2022-07-25T01:12:23;27.10;52.10
53978;DHT22;39886;47.984;-1.586;2022-07-25T01:14:49;27.10;52.00
53978;DHT22;39886;47.984;-1.586;2022-07-25T01:17:15;27.10;52.10
53978;DHT22;39886;47.984;-1.586;2022-07-25T01:19:41;27.00;52.00
53978;DHT22;39886;47.984;-1.586;2022-07-25T01:22:07;27.00;52.00
53978;DHT22;39886;47.984;-1.586;2022-07-25T01:24:34;27.10;52.20
53978;DHT22;39886;47.984;-1.586;2022-07-25T01:27:01;27.00;52.10
53978;DHT22;39886;47.984;-1.586;2022-07-25T01:29:27;27.00;52.10
53978;DHT22;39886;47.984;-1.586;2022-07-25T01:31:53;27.00;52.10
53978;DHT22;39886;47.984;-1.586;2022-07-25T01:34:19;27.00;52.10
53978;DHT22;39886;47.984;-1.586;2022-07-25T01:36:45;27.00;52.20
53978;DHT22;39886;47.984;-1.586;2022-07-25T01:39:10;26.90;52.10
53978;DHT22;39886;47.984;-1.586;2022-07-25T01:41:36;26.90;52.10
53978;DHT22;39886;47.984;-1.586;2022-07-25T01:44:02;26.90;52.20
53978;DHT22;39886;47.984;-1.586;2022-07-25T01:46:28;26.90;52.20
53978;DHT22;39886;47.984;-1.586;2022-07-25T01:48:54;26.90;52.20
53978;DHT22;39886;47.984;-1.586;2022-07-25T01:51:20;26.90;52.20
53978;DHT22;39886;47.984;-1.586;2022-07-25T01:53:46;26.90;52.30
53978;DHT22;39886;47.984;-1.586;2022-07-25T01:56:11;26.90;52.30
53978;DHT22;39886;47.984;-1.586;2022-07-25T01:58:37;26.90;52.30
53978;DHT22;39886;47.984;-1.586;2022-07-25T02:01:03;26.80;52.30
53978;DHT22;39886;47.984;-1.586;2022-07-25T02:03:29;26.80;52.30
53978;DHT22;39886;47.984;-1.586;2022-07-25T02:06:02;26.80;52.40
53978;DHT22;39886;47.984;-1.586;2022-07-25T02:08:29;26.80;52.40
53978;DHT22;39886;47.984;-1.586;2022-07-25T02:10:56;26.80;52.40
53978;DHT22;39886;47.984;-1.586;2022-07-25T02:13:22;26.80;52.40
53978;DHT22;39886;47.984;-1.586;2022-07-25T02:15:48;26.80;52.40
53978;DHT22;39886;47.984;-1.586;2022-07-25T02:18:14;26.80;52.40
53978;DHT22;39886;47.984;-1.586;2022-07-25T02:20:40;26.80;52.50
53978;DHT22;39886;47.984;-1.586;2022-07-25T02:23:06;26.70;52.40
53978;DHT22;39886;47.984;-1.586;2022-07-25T02:25:32;26.70;52.40
53978;DHT22;39886;47.984;-1.586;2022-07-25T02:27:59;26.70;52.50
53978;DHT22;39886;47.984;-1.586;2022-07-25T02:30:24;26.70;52.50
53978;DHT22;39886;47.984;-1.586;2022-07-25T02:32:51;26.70;52.60
53978;DHT22;39886;47.984;-1.586;2022-07-25T02:35:17;26.70;52.50
53978;DHT22;39886;47.984;-1.586;2022-07-25T02:37:43;26.70;52.60
53978;DHT22;39886;47.984;-1.586;2022-07-25T02:40:09;26.70;52.60
53978;DHT22;39886;47.984;-1.586;2022-07-25T02:42:35;26.70;52.60
53978;DHT22;39886;47.984;-1.586;2022-07-25T02:45:01;26.70;52.60
53978;DHT22;39886;47.984;-1.586;2022-07-25T02:47:26;26.70;52.70
53978;DHT22;39886;47.984;-1.586;2022-07-25T02:49:52;26.70;52.70
53978;DHT22;39886;47.984;-1.586;2022-07-25T02:52:18;26.70;52.70
53978;DHT22;39886;47.984;-1.586;2022-07-25T02:54:43;26.70;52.70
53978;DHT22;39886;47.984;-1.586;2022-07-25T02:57:09;26.70;52.70
53978;DHT22;39886;47.984;-1.586;2022-07-25T02:59:35;26.70;52.80
53978;DHT22;39886;47.984;-1.586;2022-07-25T03:02:01;26.60;52.70
53978;DHT22;39886;47.984;-1.586;2022-07-25T03:04:26;26.60;52.80
53978;DHT22;39886;47.984;-1.586;2022-07-25T03:06:52;26.60;52.80
53978;DHT22;39886;47.984;-1.586;2022-07-25T03:09:18;26.60;52.80
53978;DHT22;39886;47.984;-1.586;2022-07-25T03:11:44;26.60;52.80
53978;DHT22;39886;47.984;-1.586;2022-07-25T03:14:09;26.60;52.90
53978;DHT22;39886;47.984;-1.586;2022-07-25T03:16:35;26.60;52.90
53978;DHT22;39886;47.984;-1.586;2022-07-25T03:19:01;26.60;52.90
53978;DHT22;39886;47.984;-1.586;2022-07-25T03:21:27;26.60;52.90
53978;DHT22;39886;47.984;-1.586;2022-07-25T03:23:53;26.60;53.00
53978;DHT22;39886;47.984;-1.586;2022-07-25T03:26:19;26.60;53.00
53978;DHT22;39886;47.984;-1.586;2022-07-25T03:28:45;26.60;53.10
53978;DHT22;39886;47.984;-1.586;2022-07-25T03:31:11;26.60;53.00
53978;DHT22;39886;47.984;-1.586;2022-07-25T03:33:36;26.50;53.00
53978;DHT22;39886;47.984;-1.586;2022-07-25T03:36:02;26.60;53.10
53978;DHT22;39886;47.984;-1.586;2022-07-25T03:38:28;26.60;53.10
53978;DHT22;39886;47.984;-1.586;2022-07-25T03:40:54;26.50;53.00
53978;DHT22;39886;47.984;-1.586;2022-07-25T03:43:20;26.50;53.00
53978;DHT22;39886;47.984;-1.586;2022-07-25T03:45:45;26.50;53.10
53978;DHT22;39886;47.984;-1.586;2022-07-25T03:48:11;26.50;53.10
53978;DHT22;39886;47.984;-1.586;2022-07-25T03:50:37;26.50;53.10
53978;DHT22;39886;47.984;-1.586;2022-07-25T03:53:03;26.50;53.10
53978;DHT22;39886;47.984;-1.586;2022-07-25T03:55:28;26.50;53.20
53978;DHT22;39886;47.984;-1.586;2022-07-25T03:57:54;26.50;53.20
53978;DHT22;39886;47.984;-1.586;2022-07-25T04:00:20;26.50;53.20
53978;DHT22;39886;47.984;-1.586;2022-07-25T04:02:46;26.50;53.20
53978;DHT22;39886;47.984;-1.586;2022-07-25T04:05:12;26.50;53.20
53978;DHT22;39886;47.984;-1.586;2022-07-25T04:07:37;26.50;53.30
53978;DHT22;39886;47.984;-1.586;2022-07-25T04:10:04;26.50;53.30
53978;DHT22;39886;47.984;-1.586;2022-07-25T04:12:30;26.50;53.30
53978;DHT22;39886;47.984;-1.586;2022-07-25T04:14:56;26.50;53.30
53978;DHT22;39886;47.984;-1.586;2022-07-25T04:17:22;26.50;53.40
53978;DHT22;39886;47.984;-1.586;2022-07-25T04:19:48;26.50;53.40
53978;DHT22;39886;47.984;-1.586;2022-07-25T04:22:14;26.50;53.40
53978;DHT22;39886;47.984;-1.586;2022-07-25T04:24:40;26.50;53.40
53978;DHT22;39886;47.984;-1.586;2022-07-25T04:27:05;26.50;53.40
53978;DHT22;39886;47.984;-1.586;2022-07-25T04:29:31;26.50;53.50
53978;DHT22;39886;47.984;-1.586;2022-07-25T04:31:57;26.50;53.50
53978;DHT22;39886;47.984;-1.586;2022-07-25T04:34:23;26.50;53.50
53978;DHT22;39886;47.984;-1.586;2022-07-25T04:36:48;26.50;53.50
53978;DHT22;39886;47.984;-1.586;2022-07-25T04:39:14;26.40;53.50
53978;DHT22;39886;47.984;-1.586;2022-07-25T04:41:40;26.40;53.50
53978;DHT22;39886;47.984;-1.586;2022-07-25T04:44:06;26.40;53.50
53978;DHT22;39886;47.984;-1.586;2022-07-25T04:46:32;26.40;53.50
53978;DHT22;39886;47.984;-1.586;2022-07-25T04:48:58;26.40;53.50
53978;DHT22;39886;47.984;-1.586;2022-07-25T04:51:24;26.40;53.50
53978;DHT22;39886;47.984;-1.586;2022-07-25T04:53:50;26.40;53.60
53978;DHT22;39886;47.984;-1.586;2022-07-25T04:56:15;26.40;53.50
53978;DHT22;39886;47.984;-1.586;2022-07-25T04:58:42;26.40;53.50
53978;DHT22;39886;47.984;-1.586;2022-07-25T05:01:07;26.40;53.50
53978;DHT22;39886;47.984;-1.586;2022-07-25T05:03:33;26.40;53.50
53978;DHT22;39886;47.984;-1.586;2022-07-25T05:05:59;26.40;53.50
53978;DHT22;39886;47.984;-1.586;2022-07-25T05:08:25;26.40;53.60
53978;DHT22;39886;47.984;-1.586;2022-07-25T05:10:50;26.40;53.60
53978;DHT22;39886;47.984;-1.586;2022-07-25T05:13:16;26.40;53.60
53978;DHT22;39886;47.984;-1.586;2022-07-25T05:15:42;26.40;53.70
53978;DHT22;39886;47.984;-1.586;2022-07-25T05:18:08;26.40;53.70
53978;DHT22;39886;47.984;-1.586;2022-07-25T05:20:33;26.40;53.60
53978;DHT22;39886;47.984;-1.586;2022-07-25T05:22:59;26.40;53.70
53978;DHT22;39886;47.984;-1.586;2022-07-25T05:25:25;26.40;53.70
53978;DHT22;39886;47.984;-1.586;2022-07-25T05:27:51;26.40;53.70
53978;DHT22;39886;47.984;-1.586;2022-07-25T05:30:19;26.40;53.70
53978;DHT22;39886;47.984;-1.586;2022-07-25T05:32:45;26.40;53.70
53978;DHT22;39886;47.984;-1.586;2022-07-25T05:35:10;26.40;53.70
53978;DHT22;39886;47.984;-1.586;2022-07-25T05:37:37;26.40;53.70
53978;DHT22;39886;47.984;-1.586;2022-07-25T05:40:04;26.40;53.80
53978;DHT22;39886;47.984;-1.586;2022-07-25T05:42:31;26.40;53.80
53978;DHT22;39886;47.984;-1.586;2022-07-25T05:44:57;26.40;53.80
53978;DHT22;39886;47.984;-1.586;2022-07-25T05:47:22;26.40;53.80
53978;DHT22;39886;47.984;-1.586;2022-07-25T05:49:48;26.40;53.80
53978;DHT22;39886;47.984;-1.586;2022-07-25T05:52:14;26.40;53.80
53978;DHT22;39886;47.984;-1.586;2022-07-25T05:54:39;26.40;53.80
53978;DHT22;39886;47.984;-1.586;2022-07-25T05:57:05;26.40;53.80
53978;DHT22;39886;47.984;-1.586;2022-07-25T05:59:31;26.40;53.80
53978;DHT22;39886;47.984;-1.586;2022-07-25T06:01:57;26.40;53.90
53978;DHT22;39886;47.984;-1.586;2022-07-25T06:04:22;26.40;53.90
53978;DHT22;39886;47.984;-1.586;2022-07-25T06:06:48;26.40;53.90
53978;DHT22;39886;47.984;-1.586;2022-07-25T06:09:21;26.40;53.90
53978;DHT22;39886;47.984;-1.586;2022-07-25T06:11:48;26.40;53.90
53978;DHT22;39886;47.984;-1.586;2022-07-25T06:14:14;26.40;53.90
53978;DHT22;39886;47.984;-1.586;2022-07-25T06:16:40;26.40;53.90
53978;DHT22;39886;47.984;-1.586;2022-07-25T06:19:06;26.40;53.90
53978;DHT22;39886;47.984;-1.586;2022-07-25T06:21:31;26.40;53.90
53978;DHT22;39886;47.984;-1.586;2022-07-25T06:23:57;26.40;53.90
53978;DHT22;39886;47.984;-1.586;2022-07-25T06:26:23;26.40;54.00
53978;DHT22;39886;47.984;-1.586;2022-07-25T06:28:52;26.40;54.00
53978;DHT22;39886;47.984;-1.586;2022-07-25T06:31:18;26.40;53.90
53978;DHT22;39886;47.984;-1.586;2022-07-25T06:33:44;26.40;54.00
53978;DHT22;39886;47.984;-1.586;2022-07-25T06:36:10;26.40;54.10
53978;DHT22;39886;47.984;-1.586;2022-07-25T06:38:36;26.50;54.60
53978;DHT22;39886;47.984;-1.586;2022-07-25T06:41:02;26.50;54.70
53978;DHT22;39886;47.984;-1.586;2022-07-25T06:43:28;26.50;54.80
53978;DHT22;39886;47.984;-1.586;2022-07-25T06:45:53;26.50;54.90
53978;DHT22;39886;47.984;-1.586;2022-07-25T06:48:19;26.50;55.30
53978;DHT22;39886;47.984;-1.586;2022-07-25T06:50:45;26.50;55.40
53978;DHT22;39886;47.984;-1.586;2022-07-25T06:53:11;26.50;55.60
53978;DHT22;39886;47.984;-1.586;2022-07-25T06:55:37;26.50;55.80
53978;DHT22;39886;47.984;-1.586;2022-07-25T06:58:03;26.50;55.70
53978;DHT22;39886;47.984;-1.586;2022-07-25T07:00:28;26.50;55.80
53978;DHT22;39886;47.984;-1.586;2022-07-25T07:02:56;26.50;55.70
53978;DHT22;39886;47.984;-1.586;2022-07-25T07:05:24;26.60;55.70
53978;DHT22;39886;47.984;-1.586;2022-07-25T07:07:50;26.60;55.70
53978;DHT22;39886;47.984;-1.586;2022-07-25T07:10:16;26.60;55.60
53978;DHT22;39886;47.984;-1.586;2022-07-25T07:12:43;26.30;56.40
53978;DHT22;39886;47.984;-1.586;2022-07-25T07:15:09;25.90;56.70
53978;DHT22;39886;47.984;-1.586;2022-07-25T07:17:35;25.60;57.50
53978;DHT22;39886;47.984;-1.586;2022-07-25T07:20:02;25.70;57.50
53978;DHT22;39886;47.984;-1.586;2022-07-25T07:22:28;25.50;57.10
53978;DHT22;39886;47.984;-1.586;2022-07-25T07:24:54;25.30;58.00
53978;DHT22;39886;47.984;-1.586;2022-07-25T07:27:19;25.30;57.90
53978;DHT22;39886;47.984;-1.586;2022-07-25T07:29:48;25.00;58.20
53978;DHT22;39886;47.984;-1.586;2022-07-25T07:32:13;24.70;58.40
53978;DHT22;39886;47.984;-1.586;2022-07-25T07:34:39;24.50;58.50
53978;DHT22;39886;47.984;-1.586;2022-07-25T07:37:05;24.60;58.50
53978;DHT22;39886;47.984;-1.586;2022-07-25T07:39:31;24.80;57.90
53978;DHT22;39886;47.984;-1.586;2022-07-25T07:41:57;24.80;58.40
53978;DHT22;39886;47.984;-1.586;2022-07-25T07:44:23;24.80;58.50
53978;DHT22;39886;47.984;-1.586;2022-07-25T07:46:48;24.80;58.00
53978;DHT22;39886;47.984;-1.586;2022-07-25T07:49:14;24.80;58.10
53978;DHT22;39886;47.984;-1.586;2022-07-25T07:51:40;24.80;58.40
53978;DHT22;39886;47.984;-1.586;2022-07-25T07:54:06;24.80;57.80
53978;DHT22;39886;47.984;-1.586;2022-07-25T07:56:50;24.60;57.50
53978;DHT22;39886;47.984;-1.586;2022-07-25T07:59:16;24.70;57.20
53978;DHT22;39886;47.984;-1.586;2022-07-25T08:01:41;24.70;57.10
53978;DHT22;39886;47.984;-1.586;2022-07-25T08:04:07;24.60;56.90
53978;DHT22;39886;47.984;-1.586;2022-07-25T08:06:33;24.60;56.30
53978;DHT22;39886;47.984;-1.586;2022-07-25T08:08:59;24.60;56.10
53978;DHT22;39886;47.984;-1.586;2022-07-25T08:11:24;24.60;56.30
53978;DHT22;39886;47.984;-1.586;2022-07-25T08:13:51;24.50;55.90
53978;DHT22;39886;47.984;-1.586;2022-07-25T08:16:16;24.40;56.70
53978;DHT22;39886;47.984;-1.586;2022-07-25T08:18:43;24.40;56.80
53978;DHT22;39886;47.984;-1.586;2022-07-25T08:21:09;24.60;56.60
53978;DHT22;39886;47.984;-1.586;2022-07-25T08:23:34;24.60;55.00
53978;DHT22;39886;47.984;-1.586;2022-07-25T08:26:03;24.60;55.20
53978;DHT22;39886;47.984;-1.586;2022-07-25T08:28:30;24.50;54.90
53978;DHT22;39886;47.984;-1.586;2022-07-25T08:30:55;24.40;55.20
53978;DHT22;39886;47.984;-1.586;2022-07-25T08:33:22;24.40;55.30
53978;DHT22;39886;47.984;-1.586;2022-07-25T08:35:50;24.20;55.70
53978;DHT22;39886;47.984;-1.586;2022-07-25T08:38:18;24.40;55.50
53978;DHT22;39886;47.984;-1.586;2022-07-25T08:40:44;24.30;55.30
53978;DHT22;39886;47.984;-1.586;2022-07-25T08:43:15;24.20;55.90
53978;DHT22;39886;47.984;-1.586;2022-07-25T08:45:50;24.40;55.30
53978;DHT22;39886;47.984;-1.586;2022-07-25T08:48:18;24.40;55.00
53978;DHT22;39886;47.984;-1.586;2022-07-25T08:50:45;24.30;54.70
53978;DHT22;39886;47.984;-1.586;2022-07-25T08:53:12;24.00;54.70
53978;DHT22;39886;47.984;-1.586;2022-07-25T08:55:38;24.10;55.10
53978;DHT22;39886;47.984;-1.586;2022-07-25T08:58:04;24.20;54.80
53978;DHT22;39886;47.984;-1.586;2022-07-25T09:00:30;24.30;54.80
53978;DHT22;39886;47.984;-1.586;2022-07-25T09:03:03;24.50;54.20
53978;DHT22;39886;47.984;-1.586;2022-07-25T09:05:33;24.50;53.90
53978;DHT22;39886;47.984;-1.586;2022-07-25T09:08:10;24.50;54.40
53978;DHT22;39886;47.984;-1.586;2022-07-25T09:10:36;24.60;54.10
53978;DHT22;39886;47.984;-1.586;2022-07-25T09:13:06;24.60;53.90
53978;DHT22;39886;47.984;-1.586;2022-07-25T09:15:37;24.60;54.00
53978;DHT22;39886;47.984;-1.586;2022-07-25T09:18:08;24.70;53.90
53978;DHT22;39886;47.984;-1.586;2022-07-25T09:20:42;24.80;53.60
53978;DHT22;39886;47.984;-1.586;2022-07-25T09:28:29;24.70;54.00
53978;DHT22;39886;47.984;-1.586;2022-07-25T09:30:59;24.80;53.70
53978;DHT22;39886;47.984;-1.586;2022-07-25T09:33:27;24.80;53.50
53978;DHT22;39886;47.984;-1.586;2022-07-25T09:35:53;24.90;53.40
53978;DHT22;39886;47.984;-1.586;2022-07-25T09:38:20;24.90;53.60
53978;DHT22;39886;47.984;-1.586;2022-07-25T09:40:57;24.90;54.00
53978;DHT22;39886;47.984;-1.586;2022-07-25T09:43:35;24.90;53.90
53978;DHT22;39886;47.984;-1.586;2022-07-25T09:46:01;24.70;53.90
53978;DHT22;39886;47.984;-1.586;2022-07-25T09:48:27;24.70;54.20
53978;DHT22;39886;47.984;-1.586;2022-07-25T09:50:53;24.70;54.20
53978;DHT22;39886;47.984;-1.586;2022-07-25T09:53:19;24.60;54.60
53978;DHT22;39886;47.984;-1.586;2022-07-25T09:55:45;24.70;54.80
53978;DHT22;39886;47.984;-1.586;2022-07-25T09:58:12;24.60;54.60
53978;DHT22;39886;47.984;-1.586;2022-07-25T10:00:39;24.70;54.70
53978;DHT22;39886;47.984;-1.586;2022-07-25T10:06:29;25.00;53.60
53978;DHT22;39886;47.984;-1.586;2022-07-25T10:08:58;24.90;53.40
53978;DHT22;39886;47.984;-1.586;2022-07-25T10:11:26;24.90;53.40
53978;DHT22;39886;47.984;-1.586;2022-07-25T10:13:53;24.90;53.70
53978;DHT22;39886;47.984;-1.586;2022-07-25T10:16:24;24.90;53.20
53978;DHT22;39886;47.984;-1.586;2022-07-25T10:18:55;24.80;53.10
53978;DHT22;39886;47.984;-1.586;2022-07-25T10:21:22;25.00;53.20
53978;DHT22;39886;47.984;-1.586;2022-07-25T10:24:03;25.00;52.90
53978;DHT22;39886;47.984;-1.586;2022-07-25T10:26:30;24.80;53.20
53978;DHT22;39886;47.984;-1.586;2022-07-25T10:28:57;24.90;53.20
53978;DHT22;39886;47.984;-1.586;2022-07-25T10:31:25;24.90;52.20
53978;DHT22;39886;47.984;-1.586;2022-07-25T10:33:57;25.10;52.10
53978;DHT22;39886;47.984;-1.586;2022-07-25T10:36:25;25.20;51.70
53978;DHT22;39886;47.984;-1.586;2022-07-25T10:38:56;25.20;50.60
53978;DHT22;39886;47.984;-1.586;2022-07-25T10:41:24;25.10;51.00
53978;DHT22;39886;47.984;-1.586;2022-07-25T10:43:58;25.30;50.90
53978;DHT22;39886;47.984;-1.586;2022-07-25T10:46:26;25.30;50.20
53978;DHT22;39886;47.984;-1.586;2022-07-25T10:49:27;25.20;51.00
53978;DHT22;39886;47.984;-1.586;2022-07-25T10:52:01;25.30;50.80
53978;DHT22;39886;47.984;-1.586;2022-07-25T10:54:34;25.20;50.90
53978;DHT22;39886;47.984;-1.586;2022-07-25T10:57:01;25.30;51.00
53978;DHT22;39886;47.984;-1.586;2022-07-25T10:59:38;25.30;51.20
53978;DHT22;39886;47.984;-1.586;2022-07-25T11:02:09;25.30;51.10
53978;DHT22;39886;47.984;-1.586;2022-07-25T11:04:41;25.30;50.60
53978;DHT22;39886;47.984;-1.586;2022-07-25T11:07:12;25.20;50.70
53978;DHT22;39886;47.984;-1.586;2022-07-25T11:09:39;25.30;50.80
53978;DHT22;39886;47.984;-1.586;2022-07-25T11:12:05;25.30;50.70
53978;DHT22;39886;47.984;-1.586;2022-07-25T11:14:40;25.30;50.30
53978;DHT22;39886;47.984;-1.586;2022-07-25T11:19:39;25.40;50.30
53978;DHT22;39886;47.984;-1.586;2022-07-25T11:22:05;25.50;49.50
53978;DHT22;39886;47.984;-1.586;2022-07-25T11:24:37;25.50;48.80
53978;DHT22;39886;47.984;-1.586;2022-07-25T11:27:05;25.60;48.50
53978;DHT22;39886;47.984;-1.586;2022-07-25T11:29:32;25.60;49.00
53978;DHT22;39886;47.984;-1.586;2022-07-25T11:34:31;25.70;49.00
53978;DHT22;39886;47.984;-1.586;2022-07-25T11:37:00;25.70;48.10
53978;DHT22;39886;47.984;-1.586;2022-07-25T11:39:29;25.70;47.90
53978;DHT22;39886;47.984;-1.586;2022-07-25T11:42:00;25.60;47.50
53978;DHT22;39886;47.984;-1.586;2022-07-25T11:44:37;25.70;47.60
53978;DHT22;39886;47.984;-1.586;2022-07-25T11:47:05;25.70;47.60
53978;DHT22;39886;47.984;-1.586;2022-07-25T11:49:45;25.70;47.90
53978;DHT22;39886;47.984;-1.586;2022-07-25T11:52:26;25.80;47.60
53978;DHT22;39886;47.984;-1.586;2022-07-25T11:54:56;25.70;47.30
53978;DHT22;39886;47.984;-1.586;2022-07-25T11:57:26;25.60;47.40
53978;DHT22;39886;47.984;-1.586;2022-07-25T11:59:52;25.50;47.80
53978;DHT22;39886;47.984;-1.586;2022-07-25T12:02:25;25.60;47.60
53978;DHT22;39886;47.984;-1.586;2022-07-25T12:05:05;25.60;47.40
53978;DHT22;39886;47.984;-1.586;2022-07-25T12:07:41;25.60;47.70
53978;DHT22;39886;47.984;-1.586;2022-07-25T12:10:20;25.80;48.00
53978;DHT22;39886;47.984;-1.586;2022-07-25T12:12:54;25.80;47.70
53978;DHT22;39886;47.984;-1.586;2022-07-25T12:15:31;25.90;47.40
53978;DHT22;39886;47.984;-1.586;2022-07-25T12:17:58;26.00;47.60
53978;DHT22;39886;47.984;-1.586;2022-07-25T12:20:30;26.00;47.10
53978;DHT22;39886;47.984;-1.586;2022-07-25T12:23:03;26.10;47.50
53978;DHT22;39886;47.984;-1.586;2022-07-25T12:25:30;26.10;47.10
53978;DHT22;39886;47.984;-1.586;2022-07-25T12:27:57;26.10;46.50
53978;DHT22;39886;47.984;-1.586;2022-07-25T12:30:29;26.10;46.50
53978;DHT22;39886;47.984;-1.586;2022-07-25T12:32:56;26.20;46.60
53978;DHT22;39886;47.984;-1.586;2022-07-25T12:35:22;26.20;46.60
53978;DHT22;39886;47.984;-1.586;2022-07-25T12:37:50;26.20;46.30
53978;DHT22;39886;47.984;-1.586;2022-07-25T12:40:16;26.30;46.60
53978;DHT22;39886;47.984;-1.586;2022-07-25T12:42:43;26.40;46.50
53978;DHT22;39886;47.984;-1.586;2022-07-25T12:45:10;26.40;46.10
53978;DHT22;39886;47.984;-1.586;2022-07-25T12:47:36;26.30;46.00
53978;DHT22;39886;47.984;-1.586;2022-07-25T12:50:03;26.30;46.10
53978;DHT22;39886;47.984;-1.586;2022-07-25T12:52:29;26.20;46.20
53978;DHT22;39886;47.984;-1.586;2022-07-25T12:54:55;26.30;46.10
53978;DHT22;39886;47.984;-1.586;2022-07-25T12:57:20;26.30;46.00
53978;DHT22;39886;47.984;-1.586;2022-07-25T12:59:46;26.30;46.10
53978;DHT22;39886;47.984;-1.586;2022-07-25T13:02:12;26.40;46.10
53978;DHT22;39886;47.984;-1.586;2022-07-25T13:04:38;26.50;45.90
53978;DHT22;39886;47.984;-1.586;2022-07-25T13:07:04;26.50;45.50
53978;DHT22;39886;47.984;-1.586;2022-07-25T13:09:30;26.40;45.20
53978;DHT22;39886;47.984;-1.586;2022-07-25T13:11:56;26.40;45.30
53978;DHT22;39886;47.984;-1.586;2022-07-25T13:14:22;26.30;45.20
53978;DHT22;39886;47.984;-1.586;2022-07-25T13:16:49;26.30;45.10
53978;DHT22;39886;47.984;-1.586;2022-07-25T13:19:15;26.20;45.30
53978;DHT22;39886;47.984;-1.586;2022-07-25T13:21:42;26.10;45.40
53978;DHT22;39886;47.984;-1.586;2022-07-25T13:24:08;26.30;45.40
53978;DHT22;39886;47.984;-1.586;2022-07-25T13:26:35;26.40;45.10
53978;DHT22;39886;47.984;-1.586;2022-07-25T13:29:01;26.40;45.10
53978;DHT22;39886;47.984;-1.586;2022-07-25T13:31:27;26.50;45.10
53978;DHT22;39886;47.984;-1.586;2022-07-25T13:33:53;26.40;45.10
53978;DHT22;39886;47.984;-1.586;2022-07-25T13:36:19;26.50;45.10
53978;DHT22;39886;47.984;-1.586;2022-07-25T13:38:45;26.50;45.10
53978;DHT22;39886;47.984;-1.586;2022-07-25T13:41:13;26.50;45.10
53978;DHT22;39886;47.984;-1.586;2022-07-25T13:43:39;26.30;45.20
53978;DHT22;39886;47.984;-1.586;2022-07-25T13:46:07;26.30;45.30
53978;DHT22;39886;47.984;-1.586;2022-07-25T13:48:33;26.40;45.30
53978;DHT22;39886;47.984;-1.586;2022-07-25T13:50:59;26.50;45.10
53978;DHT22;39886;47.984;-1.586;2022-07-25T13:53:25;26.40;45.10
53978;DHT22;39886;47.984;-1.586;2022-07-25T13:55:51;26.30;45.20
53978;DHT22;39886;47.984;-1.586;2022-07-25T13:58:16;26.20;45.40
53978;DHT22;39886;47.984;-1.586;2022-07-25T14:00:42;26.10;45.60
53978;DHT22;39886;47.984;-1.586;2022-07-25T14:03:09;26.10;45.40
53978;DHT22;39886;47.984;-1.586;2022-07-25T14:05:37;26.00;45.50
53978;DHT22;39886;47.984;-1.586;2022-07-25T14:08:03;26.00;46.00
53978;DHT22;39886;47.984;-1.586;2022-07-25T14:10:28;26.00;45.70
53978;DHT22;39886;47.984;-1.586;2022-07-25T14:12:55;26.00;45.80
53978;DHT22;39886;47.984;-1.586;2022-07-25T14:15:20;25.90;45.90
53978;DHT22;39886;47.984;-1.586;2022-07-25T14:17:46;26.00;45.90
53978;DHT22;39886;47.984;-1.586;2022-07-25T14:20:12;26.10;46.00
53978;DHT22;39886;47.984;-1.586;2022-07-25T14:22:38;26.20;45.70
53978;DHT22;39886;47.984;-1.586;2022-07-25T14:25:07;26.20;46.00
53978;DHT22;39886;47.984;-1.586;2022-07-25T14:27:33;26.10;45.80
53978;DHT22;39886;47.984;-1.586;2022-07-25T14:29:59;26.00;46.10
53978;DHT22;39886;47.984;-1.586;2022-07-25T14:32:25;26.00;46.10
53978;DHT22;39886;47.984;-1.586;2022-07-25T14:34:51;26.00;46.10
53978;DHT22;39886;47.984;-1.586;2022-07-25T14:37:20;25.80;46.30
53978;DHT22;39886;47.984;-1.586;2022-07-25T14:39:48;25.70;46.50
53978;DHT22;39886;47.984;-1.586;2022-07-25T14:42:14;25.80;46.90
53978;DHT22;39886;47.984;-1.586;2022-07-25T14:44:40;25.90;46.60
53978;DHT22;39886;47.984;-1.586;2022-07-25T14:47:06;25.90;46.40
53978;DHT22;39886;47.984;-1.586;2022-07-25T14:49:33;25.90;46.50
53978;DHT22;39886;47.984;-1.586;2022-07-25T14:51:58;25.80;46.70
53978;DHT22;39886;47.984;-1.586;2022-07-25T14:54:25;25.70;46.70
53978;DHT22;39886;47.984;-1.586;2022-07-25T14:56:53;25.80;46.80
53978;DHT22;39886;47.984;-1.586;2022-07-25T14:59:19;25.80;46.90
53978;DHT22;39886;47.984;-1.586;2022-07-25T15:01:45;25.80;46.70
53978;DHT22;39886;47.984;-1.586;2022-07-25T15:04:11;25.80;47.00
53978;DHT22;39886;47.984;-1.586;2022-07-25T15:06:37;25.90;47.10
53978;DHT22;39886;47.984;-1.586;2022-07-25T15:09:03;25.90;46.80
53978;DHT22;39886;47.984;-1.586;2022-07-25T15:11:29;25.90;47.10
53978;DHT22;39886;47.984;-1.586;2022-07-25T15:13:55;25.80;47.30
53978;DHT22;39886;47.984;-1.586;2022-07-25T15:16:22;25.90;47.30
53978;DHT22;39886;47.984;-1.586;2022-07-25T15:18:48;26.00;47.40
53978;DHT22;39886;47.984;-1.586;2022-07-25T15:21:14;26.00;47.60
53978;DHT22;39886;47.984;-1.586;2022-07-25T15:23:40;25.90;47.70
53978;DHT22;39886;47.984;-1.586;2022-07-25T15:26:06;25.80;48.00
53978;DHT22;39886;47.984;-1.586;2022-07-25T15:28:33;25.80;48.30